Time;durP1;ratioP1;P1;durP2;ratioP2;P2;SDS_P1;SDS_P2;PMS_P1;PMS_P2;Temp;Humidity;BMP_temperature;BMP_pressure;BME280_temperature;BME280_humidity;BME280_pressure;Samples;Min_cycle;Max_cycle;Signal;HPM_P1;HPM_P2
2020/12/02 00:00:00;;;;;;;6.85;4.60;;;10.10;79.00;;;;;;5132507;28;20491;-43
2020/12/02 00:02:38;;;;;;;6.05;4.00;;;10.00;78.90;;;;;;5132553;28;20043;-43
2020/12/02 00:05:09;;;;;;;7.80;4.75;;;10.10;79.00;;;;;;5129580;28;20541;-42
2020/12/02 00:07:35;;;;;;;5.93;4.22;;;10.10;79.10;;;;;;5131647;28;20487;-44
2020/12/02 00:10:02;;;;;;;7.75;4.65;;;10.10;79.00;;;;;;5132071;28;20050;-42
2020/12/02 00:12:28;;;;;;;7.72;4.93;;;10.10;79.00;;;;;;5131791;28;20055;-43
2020/12/02 00:14:53;;;;;;;8.20;5.10;;;10.10;79.00;;;;;;5132613;28;20035;-42
2020/12/02 00:17:21;;;;;;;6.55;4.60;;;10.10;79.00;;;;;;5129767;28;20057;-43
2020/12/02 00:19:49;;;;;;;7.38;4.75;;;10.10;79.00;;;;;;5133223;27;20062;-43
2020/12/02 00:22:18;;;;;;;8.40;5.60;;;10.10;79.00;;;;;;5136311;27;20051;-43
2020/12/02 00:24:44;;;;;;;7.13;4.93;;;10.10;79.00;;;;;;5136051;27;20043;-43
2020/12/02 00:27:16;;;;;;;7.13;5.30;;;10.10;79.00;;;;;;5136158;27;20304;-43
2020/12/02 00:29:43;;;;;;;8.02;5.47;;;10.10;79.00;;;;;;5133450;27;20035;-43
2020/12/02 00:32:35;;;;;;;7.82;4.97;;;10.10;79.00;;;;;;5117127;27;20453;-43
2020/12/02 00:35:03;;;;;;;7.75;5.10;;;10.10;79.60;;;;;;5130663;27;20146;-43
2020/12/02 00:37:49;;;;;;;6.68;4.65;;;10.10;79.00;;;;;;5118792;27;20047;-43
2020/12/02 00:40:15;;;;;;;7.25;5.18;;;10.00;78.90;;;;;;5135831;27;20076;-43
2020/12/02 00:42:41;;;;;;;8.45;5.07;;;10.10;79.00;;;;;;5135055;27;20042;-44
2020/12/02 00:45:09;;;;;;;7.50;5.07;;;10.10;79.00;;;;;;5136062;27;20039;-43
2020/12/02 00:47:54;;;;;;;8.20;4.85;;;10.10;78.90;;;;;;5119166;27;20517;-42
2020/12/02 00:50:22;;;;;;;8.77;5.65;;;10.00;78.90;;;;;;5135443;27;20051;-43
2020/12/02 00:53:14;;;;;;;8.30;5.65;;;10.10;79.00;;;;;;5118953;27;20046;-44
2020/12/02 00:56:00;;;;;;;6.70;4.60;;;10.10;78.90;;;;;;5117282;27;20050;-43
2020/12/02 00:58:48;;;;;;;9.38;5.88;;;10.10;79.00;;;;;;5135929;27;20054;-44
2020/12/02 01:01:23;;;;;;;8.00;5.13;;;10.00;78.90;;;;;;5135085;27;20043;-44
2020/12/02 01:03:49;;;;;;;7.90;5.30;;;10.10;79.00;;;;;;5133765;27;20047;-44
2020/12/02 01:06:16;;;;;;;7.47;5.30;;;10.10;78.90;;;;;;5135382;27;20396;-43
2020/12/02 01:08:45;;;;;;;8.07;5.43;;;10.10;79.00;;;;;;5135300;27;20035;-44
2020/12/02 01:11:21;;;;;;;9.15;5.50;;;10.10;78.90;;;;;;5135088;27;20050;-42
2020/12/02 01:13:48;;;;;;;8.32;5.85;;;10.00;78.90;;;;;;5133693;27;20043;-44
2020/12/02 01:16:17;;;;;;;8.82;5.63;;;10.00;78.90;;;;;;5135089;27;20501;-45
2020/12/02 01:19:16;;;;;;;9.98;6.00;;;10.10;78.90;;;;;;5118040;27;20046;-46
2020/12/02 01:22:09;;;;;;;8.80;5.35;;;10.10;78.90;;;;;;5117592;27;20047;-46
2020/12/02 01:25:03;;;;;;;7.85;5.15;;;10.10;78.90;;;;;;5135092;27;20054;-45
2020/12/02 01:27:49;;;;;;;10.10;6.13;;;10.10;78.90;;;;;;5135006;27;20120;-47
2020/12/02 01:30:16;;;;;;;8.18;5.50;;;10.10;78.90;;;;;;5135356;27;20085;-48
2020/12/02 01:33:02;;;;;;;7.78;5.68;;;10.10;78.90;;;;;;5117130;27;20047;-45
2020/12/02 01:35:48;;;;;;;;;;;10.00;78.90;;;;;;5120236;27;20110;-46
2020/12/02 01:38:39;;;;;;;9.30;5.47;;;10.10;78.90;;;;;;5119539;27;20380;-46
2020/12/02 01:41:05;;;;;;;9.35;5.95;;;10.00;78.90;;;;;;5132966;27;20035;-43
2020/12/02 01:43:31;;;;;;;8.07;5.90;;;10.00;78.90;;;;;;5134750;27;20051;-45
2020/12/02 01:46:20;;;;;;;9.05;6.28;;;10.10;78.90;;;;;;5134283;27;20050;-44
2020/12/02 01:49:10;;;;;;;8.85;6.03;;;10.10;78.90;;;;;;5132905;27;20105;-47
2020/12/02 01:51:36;;;;;;;8.63;6.00;;;10.00;78.90;;;;;;5133816;27;20047;-42
2020/12/02 01:54:48;;;;;;;8.93;6.20;;;10.00;78.80;;;;;;5134765;27;20047;-47
2020/12/02 01:57:22;;;;;;;7.72;5.32;;;10.10;78.90;;;;;;5050605;28;20068;-40
2020/12/02 02:00:08;;;;;;;8.20;5.70;;;10.00;78.90;;;;;;5049982;28;20074;-48
2020/12/02 02:02:43;;;;;;;9.45;5.85;;;10.10;78.90;;;;;;5050786;28;20136;-46
2020/12/02 02:05:52;;;;;;;8.38;5.80;;;10.10;79.00;;;;;;5037009;28;20045;-45
2020/12/02 02:08:21;;;;;;;9.75;6.78;;;10.10;78.90;;;;;;5050616;28;20051;-44
2020/12/02 02:10:51;;;;;;;7.75;5.63;;;10.00;78.90;;;;;;5051063;28;20076;-45
2020/12/02 02:13:47;;;;;;;8.05;5.53;;;10.10;78.90;;;;;;5050511;28;20485;-44
2020/12/02 02:16:33;;;;;;;10.07;6.57;;;10.10;78.90;;;;;;5050004;28;20200;-41
2020/12/02 02:19:22;;;;;;;10.32;7.00;;;10.00;78.90;;;;;;5036706;28;20531;-43
2020/12/02 02:22:09;;;;;;;8.73;5.80;;;10.00;78.90;;;;;;5035515;28;20053;-44
2020/12/02 02:24:34;;;;;;;8.65;6.07;;;10.00;78.90;;;;;;5050590;28;20843;-43
2020/12/02 02:27:00;;;;;;;10.82;6.97;;;10.00;78.90;;;;;;5050688;28;20216;-43
2020/12/02 02:29:33;;;;;;;10.10;6.15;;;10.00;78.90;;;;;;5050417;28;20063;-45
2020/12/02 02:32:09;;;;;;;9.32;6.18;;;10.00;78.90;;;;;;5049881;28;20520;-43
2020/12/02 02:34:38;;;;;;;8.65;5.68;;;10.00;78.90;;;;;;5121021;27;20519;-45
2020/12/02 02:37:05;;;;;;;9.75;6.35;;;10.00;78.90;;;;;;5133746;27;20035;-45
2020/12/02 02:39:32;;;;;;;8.50;6.15;;;10.00;78.90;;;;;;5133628;27;20047;-43
2020/12/02 02:42:42;;;;;;;8.85;5.93;;;10.00;78.90;;;;;;5118554;27;20043;-43
2020/12/02 02:45:19;;;;;;;9.23;6.32;;;10.00;78.80;;;;;;5132107;27;20398;-43
2020/12/02 02:48:07;;;;;;;9.63;5.93;;;10.10;79.00;;;;;;5115616;27;20047;-44
2020/12/02 02:50:53;;;;;;;10.25;6.32;;;10.00;78.90;;;;;;5117279;27;20047;-44
2020/12/02 02:53:21;;;;;;;8.95;6.22;;;10.00;78.80;;;;;;5133256;27;20092;-45
2020/12/02 02:55:48;;;;;;;9.70;6.63;;;10.00;78.90;;;;;;5133959;27;20031;-43
2020/12/02 02:58:14;;;;;;;9.75;6.47;;;10.00;78.90;;;;;;5133316;27;20047;-43
2020/12/02 03:00:41;;;;;;;10.25;6.75;;;10.00;78.90;;;;;;5130289;27;20039;-41
2020/12/02 03:03:13;;;;;;;9.90;6.13;;;10.00;78.90;;;;;;5133507;27;20043;-45
2020/12/02 03:06:00;;;;;;;11.40;6.68;;;10.10;78.90;;;;;;5117712;27;20047;-44
2020/12/02 03:08:48;;;;;;;10.35;6.88;;;10.00;78.90;;;;;;5117778;27;20086;-45
2020/12/02 03:11:34;;;;;;;9.65;7.07;;;10.00;78.80;;;;;;5117014;27;20133;-44
2020/12/02 03:14:20;;;;;;;9.23;5.57;;;10.00;78.80;;;;;;5117635;27;20130;-43
2020/12/02 03:16:52;;;;;;;9.98;6.75;;;10.00;78.90;;;;;;5133398;27;20062;-45
2020/12/02 03:19:28;;;;;;;10.55;6.78;;;10.00;78.80;;;;;;5132462;27;20430;-42
2020/12/02 03:21:58;;;;;;;10.07;6.40;;;10.00;78.80;;;;;;5132580;27;20639;-44
2020/12/02 03:24:25;;;;;;;9.60;6.70;;;10.00;78.80;;;;;;5130749;27;20069;-41
2020/12/02 03:26:51;;;;;;;10.15;6.50;;;10.00;78.80;;;;;;5133331;27;20047;-43
2020/12/02 03:29:17;;;;;;;8.40;6.22;;;10.00;78.80;;;;;;5132857;27;20043;-43
2020/12/02 03:31:43;;;;;;;11.60;6.68;;;10.00;78.80;;;;;;5133222;27;20092;-41
2020/12/02 03:34:12;;;;;;;9.90;6.20;;;10.00;78.80;;;;;;5132664;27;20043;-41
2020/12/02 03:36:58;;;;;;;10.20;6.45;;;10.00;78.80;;;;;;5116750;28;20174;-43
2020/12/02 03:39:23;;;;;;;7.65;6.15;;;10.10;78.90;;;;;;5132732;28;20554;-40
2020/12/02 03:41:49;;;;;;;7.90;5.57;;;10.00;78.80;;;;;;5132529;28;20076;-41
2020/12/02 03:44:35;;;;;;;9.40;7.03;;;10.00;78.80;;;;;;5116876;28;20043;-42
2020/12/02 03:47:00;;;;;;;10.70;6.97;;;10.00;78.80;;;;;;5129978;28;20158;-44
2020/12/02 03:49:26;;;;;;;11.65;6.85;;;10.00;78.80;;;;;;5132759;28;20077;-45
2020/12/02 03:51:52;;;;;;;10.82;6.68;;;10.00;78.80;;;;;;5131966;28;20039;-45
2020/12/02 03:54:17;;;;;;;12.02;6.60;;;10.00;78.80;;;;;;5133101;27;20046;-46
2020/12/02 03:56:43;;;;;;;10.65;6.95;;;10.00;78.80;;;;;;5137008;27;20131;-43
2020/12/02 03:59:09;;;;;;;10.88;7.03;;;10.00;78.90;;;;;;5136977;27;20070;-40
2020/12/02 04:01:54;;;;;;;9.95;6.75;;;10.10;78.90;;;;;;5149136;27;20050;-39
2020/12/02 04:04:40;;;;;;;;;;;10.00;78.80;;;;;;5147583;27;20050;-43
2020/12/02 04:07:06;;;;;;;9.40;6.20;;;10.00;78.80;;;;;;5135561;27;19919;-45
2020/12/02 04:09:51;;;;;;;11.25;6.97;;;10.00;78.80;;;;;;5119689;27;20047;-42
2020/12/02 04:12:17;;;;;;;8.85;6.25;;;10.00;78.80;;;;;;5136318;27;20444;-45
2020/12/02 04:14:42;;;;;;;10.40;6.22;;;10.00;78.80;;;;;;5136895;27;20487;-43
2020/12/02 04:17:08;;;;;;;10.90;6.47;;;10.00;78.80;;;;;;5136303;27;20479;-44
2020/12/02 04:19:34;;;;;;;10.13;6.70;;;10.00;78.80;;;;;;5136777;27;20475;-43
2020/12/02 04:22:00;;;;;;;9.10;6.53;;;10.00;78.80;;;;;;5136242;27;20050;-41
2020/12/02 04:24:26;;;;;;;12.98;7.50;;;10.00;78.80;;;;;;5136020;27;20448;-40
2020/12/02 04:26:52;;;;;;;9.68;6.50;;;10.00;78.80;;;;;;5136624;27;20138;-47
2020/12/02 04:29:18;;;;;;;12.65;7.40;;;10.00;78.80;;;;;;5136116;27;20518;-41
2020/12/02 04:32:05;;;;;;;10.65;6.72;;;10.00;78.80;;;;;;5118761;27;20122;-42
2020/12/02 04:34:50;;;;;;;10.68;6.95;;;10.00;78.90;;;;;;5121168;27;20051;-44
2020/12/02 04:37:16;;;;;;;9.95;6.93;;;10.00;78.80;;;;;;5135637;27;20042;-42
2020/12/02 04:39:42;;;;;;;10.10;6.75;;;10.00;78.80;;;;;;5117082;27;20045;-41
2020/12/02 04:42:09;;;;;;;10.85;7.63;;;10.00;78.80;;;;;;5136218;27;20042;-44
2020/12/02 04:44:35;;;;;;;11.07;6.75;;;10.00;78.80;;;;;;5135842;27;20446;-42
2020/12/02 04:47:34;;;;;;;11.68;7.45;;;10.00;78.80;;;;;;5117478;27;20054;-44
2020/12/02 04:50:04;;;;;;;10.48;7.35;;;10.00;78.80;;;;;;5135518;27;20114;-40
2020/12/02 04:53:10;;;;;;;12.20;6.82;;;10.00;78.80;;;;;;5119182;27;20100;-44
2020/12/02 04:55:36;;;;;;;11.40;6.80;;;10.00;78.80;;;;;;5134963;27;20506;-43
2020/12/02 04:58:14;;;;;;;11.93;6.82;;;10.00;78.80;;;;;;5135471;27;20053;-43
2020/12/02 05:01:14;;;;;;;11.27;6.95;;;10.00;78.80;;;;;;5120211;27;20126;-44
2020/12/02 05:04:02;;;;;;;11.70;7.88;;;10.00;78.80;;;;;;5119855;27;20135;-40
2020/12/02 05:06:44;;;;;;;10.35;6.97;;;10.00;78.80;;;;;;5134271;27;20043;-43
2020/12/02 05:09:31;;;;;;;10.15;6.03;;;10.00;78.80;;;;;;5118765;27;20058;-42
2020/12/02 05:12:14;;;;;;;10.05;6.88;;;10.00;78.80;;;;;;5135314;27;20035;-43
2020/12/02 05:14:42;;;;;;;11.68;7.10;;;10.00;78.80;;;;;;5135070;27;20044;-41
2020/12/02 05:17:19;;;;;;;11.43;7.00;;;10.00;78.80;;;;;;5135293;27;20042;-42
2020/12/02 05:20:16;;;;;;;10.98;7.55;;;10.00;78.80;;;;;;5117868;27;20051;-42
2020/12/02 05:22:44;;;;;;;9.57;7.03;;;10.00;78.80;;;;;;5148229;27;20047;-43
2020/12/02 05:25:15;;;;;;;11.93;6.80;;;10.00;78.80;;;;;;5135383;27;20043;-43
2020/12/02 05:27:44;;;;;;;11.95;7.57;;;10.00;78.80;;;;;;5132045;27;20122;-43
2020/12/02 05:30:17;;;;;;;10.90;7.10;;;10.00;78.80;;;;;;5135015;27;20039;-43
2020/12/02 05:33:15;;;;;;;12.35;7.70;;;10.00;78.80;;;;;;5134307;27;20084;-43
2020/12/02 05:36:17;;;;;;;8.68;6.63;;;10.00;78.80;;;;;;5134756;27;20264;-43
2020/12/02 05:38:59;;;;;;;13.43;8.20;;;10.00;78.80;;;;;;5051424;28;20080;-42
2020/12/02 05:41:27;;;;;;;10.95;7.25;;;10.00;78.80;;;;;;5050029;28;20080;-42
2020/12/02 05:44:01;;;;;;;12.05;6.80;;;10.00;78.80;;;;;;5050927;28;20455;-44
2020/12/02 05:46:53;;;;;;;11.43;6.72;;;10.00;78.80;;;;;;5037733;28;20131;-45
2020/12/02 05:49:33;;;;;;;11.52;7.22;;;10.00;78.80;;;;;;5051167;28;20045;-43
2020/12/02 05:51:58;;;;;;;9.82;6.55;;;10.00;78.80;;;;;;5050979;28;20509;-42
2020/12/02 05:54:45;;;;;;;10.57;7.07;;;10.00;78.80;;;;;;5035089;28;20166;-44
2020/12/02 05:57:34;;;;;;;10.10;6.35;;;10.00;78.80;;;;;;5035883;28;20821;-44
2020/12/02 06:00:20;;;;;;;11.63;7.30;;;10.00;78.80;;;;;;5050626;28;20037;-42
2020/12/02 06:03:09;;;;;;;10.40;7.03;;;10.00;78.80;;;;;;5037196;28;20076;-46
2020/12/02 06:05:34;;;;;;;12.13;7.43;;;10.00;78.80;;;;;;5050935;28;20052;-47
2020/12/02 06:08:03;;;;;;;12.52;7.57;;;10.00;78.80;;;;;;5050576;28;20107;-47
2020/12/02 06:10:43;;;;;;;12.00;7.35;;;10.00;78.80;;;;;;5050933;28;20045;-46
2020/12/02 06:13:36;;;;;;;11.50;7.25;;;10.00;78.80;;;;;;5053742;27;20037;-44
2020/12/02 06:16:41;;;;;;;11.18;7.38;;;10.00;78.80;;;;;;5118235;27;20070;-49
2020/12/02 06:19:50;;;;;;;8.90;6.72;;;10.00;78.80;;;;;;5132223;27;20121;-44
2020/12/02 06:22:48;;;;;;;11.90;7.10;;;10.00;78.80;;;;;;5038995;28;20057;-46
2020/12/02 06:25:49;;;;;;;11.52;7.20;;;10.00;78.80;;;;;;5040097;28;20057;-44
2020/12/02 06:28:30;;;;;;;10.65;7.20;;;10.00;78.80;;;;;;5053996;28;20047;-44
2020/12/02 06:31:28;;;;;;;11.95;7.30;;;10.00;78.80;;;;;;5053796;28;20073;-47
2020/12/02 06:34:23;;;;;;;10.65;7.20;;;10.00;78.70;;;;;;4958299;28;20100;-48
2020/12/02 06:37:20;;;;;;;10.63;6.53;;;10.00;78.80;;;;;;4971799;28;20043;-42
2020/12/02 06:39:57;;;;;;;9.52;6.43;;;10.00;78.80;;;;;;4971141;28;20669;-44
2020/12/02 06:42:33;;;;;;;11.13;7.10;;;10.00;78.80;;;;;;4971773;28;20054;-44
2020/12/02 06:45:25;;;;;;;11.18;7.65;;;10.00;79.20;;;;;;4958730;28;20054;-41
2020/12/02 06:48:27;;;;;;;10.73;6.75;;;9.90;78.80;;;;;;4958174;28;20042;-41
2020/12/02 06:50:58;;;;;;;10.23;7.53;;;10.00;78.80;;;;;;4971467;28;20101;-45
2020/12/02 06:53:44;;;;;;;11.13;7.57;;;10.00;78.80;;;;;;4957331;28;20055;-41
2020/12/02 06:56:16;;;;;;;10.32;7.18;;;9.90;78.80;;;;;;4971199;28;20518;-40
2020/12/02 06:58:42;;;;;;;11.30;7.43;;;10.00;78.80;;;;;;4980531;28;20046;-43
2020/12/02 07:01:30;;;;;;;12.10;7.03;;;10.00;78.80;;;;;;4996413;28;20092;-44
2020/12/02 07:03:59;;;;;;;10.63;7.70;;;10.00;78.80;;;;;;5009479;28;21463;-42
2020/12/02 07:06:27;;;;;;;11.90;7.32;;;10.00;78.80;;;;;;5008223;28;20046;-43
2020/12/02 07:09:10;;;;;;;12.02;7.90;;;9.90;78.80;;;;;;5042188;27;20414;-44
2020/12/02 07:11:39;;;;;;;11.00;7.93;;;10.00;78.80;;;;;;5132506;27;20055;-43
2020/12/02 07:14:19;;;;;;;14.00;8.02;;;10.00;78.80;;;;;;5133127;27;20038;-42
2020/12/02 07:16:45;;;;;;;11.57;7.38;;;10.00;78.80;;;;;;5131077;27;20554;-43
2020/12/02 07:19:14;;;;;;;11.13;7.63;;;10.00;78.80;;;;;;5132742;27;20064;-41
2020/12/02 07:21:52;;;;;;;13.13;8.13;;;10.00;78.80;;;;;;5132615;27;20099;-42
2020/12/02 07:24:45;;;;;;;12.93;8.27;;;10.00;78.80;;;;;;5132394;27;20054;-42
2020/12/02 07:27:12;;;;;;;14.07;8.20;;;10.00;78.80;;;;;;5048563;28;20056;-42
2020/12/02 07:29:38;;;;;;;13.13;7.57;;;10.00;78.80;;;;;;5032013;28;20037;-44
2020/12/02 07:32:12;;;;;;;11.48;7.47;;;10.00;78.80;;;;;;5049539;28;20111;-42
2020/12/02 07:35:16;;;;;;;12.07;7.45;;;10.00;78.80;;;;;;5035761;28;20068;-45
2020/12/02 07:37:42;;;;;;;14.32;7.53;;;10.00;78.80;;;;;;5046597;28;20123;-43
2020/12/02 07:40:30;;;;;;;12.77;7.38;;;10.00;78.80;;;;;;5048964;28;20045;-43
2020/12/02 07:42:58;;;;;;;11.68;7.53;;;10.00;78.80;;;;;;5048113;28;20063;-42
2020/12/02 07:45:30;;;;;;;14.43;7.97;;;10.00;78.80;;;;;;5046714;28;20311;-43
2020/12/02 07:48:06;;;;;;;14.18;7.15;;;10.00;78.80;;;;;;5047840;28;20053;-44
2020/12/02 07:50:43;;;;;;;13.45;7.25;;;10.00;78.80;;;;;;5046899;28;20049;-43
2020/12/02 07:53:39;;;;;;;11.35;7.55;;;10.00;78.80;;;;;;5032331;28;20532;-42
2020/12/02 07:56:12;;;;;;;13.77;7.70;;;10.00;78.80;;;;;;5048046;28;20052;-43
2020/12/02 07:59:05;;;;;;;11.38;7.18;;;10.00;78.80;;;;;;5035306;28;20041;-39
2020/12/02 08:01:37;;;;;;;13.32;7.68;;;10.00;78.90;;;;;;5049539;28;20429;-45
2020/12/02 08:04:22;;;;;;;14.40;8.50;;;10.00;78.80;;;;;;5087830;28;20552;-42
2020/12/02 08:07:11;;;;;;;12.65;7.80;;;10.00;78.80;;;;;;5130578;28;20495;-44
2020/12/02 08:09:38;;;;;;;36.92;17.17;;;10.00;78.60;;;;;;5132427;28;20047;-44
2020/12/02 08:12:12;;;;;;;28.55;17.08;;;9.80;77.60;;;;;;5133103;28;20035;-47
2020/12/02 08:14:44;;;;;;;36.65;16.38;;;9.60;78.10;;;;;;5132881;28;20042;-48
2020/12/02 08:17:21;;;;;;;28.83;16.10;;;9.60;78.40;;;;;;5132753;28;20112;-45
2020/12/02 08:20:30;;;;;;;34.60;16.25;;;9.60;78.50;;;;;;5117296;28;20495;-47
2020/12/02 08:22:59;;;;;;;31.33;14.40;;;9.60;78.50;;;;;;5125176;28;20051;-47
2020/12/02 08:25:31;;;;;;;32.55;16.85;;;9.60;78.50;;;;;;5132507;28;20074;-48
2020/12/02 08:28:00;;;;;;;31.55;16.83;;;9.60;78.60;;;;;;5132716;28;20051;-51
2020/12/02 08:30:29;;;;;;;29.58;15.88;;;9.70;78.60;;;;;;5133037;28;20043;-52
2020/12/02 08:33:15;;;;;;;32.33;15.38;;;9.70;78.60;;;;;;5117683;28;20043;-51
2020/12/02 08:35:44;;;;;;;31.05;14.82;;;9.70;78.60;;;;;;5132794;28;20074;-52
2020/12/02 08:38:23;;;;;;;30.88;14.95;;;9.70;78.60;;;;;;5132646;28;20114;-51
2020/12/02 08:41:17;;;;;;;32.15;15.93;;;9.70;78.30;;;;;;5118397;27;20043;-50
2020/12/02 08:44:11;;;;;;;29.02;14.95;;;9.60;78.20;;;;;;5131335;27;20043;-51
2020/12/02 08:46:57;;;;;;;28.80;13.73;;;9.60;78.40;;;;;;5125980;27;20043;-52
2020/12/02 08:49:43;;;;;;;27.45;13.93;;;9.60;78.40;;;;;;5111810;27;20047;-50
2020/12/02 08:52:09;;;;;;;26.42;14.13;;;9.60;78.50;;;;;;5136323;27;20047;-49
2020/12/02 08:54:35;;;;;;;26.33;14.43;;;9.60;78.50;;;;;;5136239;27;20075;-48
2020/12/02 08:57:06;;;;;;;29.00;14.35;;;9.60;78.50;;;;;;5135451;27;20411;-53
2020/12/02 08:59:34;;;;;;;32.35;14.95;;;9.70;78.50;;;;;;5135956;27;20043;-51
2020/12/02 09:02:20;;;;;;;24.80;13.70;;;9.70;78.60;;;;;;5120587;27;20043;-54
2020/12/02 09:04:46;;;;;;;27.70;14.45;;;9.70;78.60;;;;;;5136239;27;20051;-52
2020/12/02 09:07:13;;;;;;;27.35;14.50;;;9.70;78.60;;;;;;5135652;27;20046;-52
2020/12/02 09:10:00;;;;;;;26.17;13.77;;;9.70;78.60;;;;;;5120654;27;20043;-52
2020/12/02 09:12:26;;;;;;;23.63;14.48;;;9.70;78.60;;;;;;5135668;27;20104;-50
2020/12/02 09:15:12;;;;;;;24.48;14.30;;;9.70;78.60;;;;;;5111053;27;20074;-48
2020/12/02 09:17:37;;;;;;;25.92;14.65;;;9.70;78.60;;;;;;5135885;27;20521;-52
2020/12/02 09:20:24;;;;;;;22.35;13.02;;;9.70;78.60;;;;;;5120579;27;20043;-46
2020/12/02 09:22:51;;;;;;;25.73;13.38;;;9.70;78.60;;;;;;5135756;27;20051;-49
2020/12/02 09:25:17;;;;;;;22.25;12.45;;;9.70;78.60;;;;;;5135535;27;20050;-46
2020/12/02 09:27:44;;;;;;;24.70;13.55;;;9.70;78.60;;;;;;5135277;27;20414;-50
2020/12/02 09:30:11;;;;;;;22.75;12.82;;;9.80;78.70;;;;;;5135679;27;20054;-47
2020/12/02 09:32:56;;;;;;;26.20;13.70;;;9.80;78.70;;;;;;5119485;27;20036;-53
2020/12/02 09:35:23;;;;;;;23.63;13.40;;;9.70;78.60;;;;;;5135184;27;20066;-50
2020/12/02 09:37:49;;;;;;;27.77;13.40;;;9.70;78.60;;;;;;5135825;27;20054;-52
2020/12/02 09:40:15;;;;;;;24.45;13.20;;;9.80;78.70;;;;;;5135437;27;20051;-53
2020/12/02 09:43:10;;;;;;;25.15;13.63;;;9.80;78.70;;;;;;5134878;27;20073;-43
2020/12/02 09:45:55;;;;;;;25.27;13.65;;;9.80;78.70;;;;;;5119812;27;20051;-48
2020/12/02 09:48:26;;;;;;;27.65;15.40;;;9.80;78.70;;;;;;5135245;27;20035;-47
2020/12/02 09:50:52;;;;;;;24.35;13.75;;;9.80;78.40;;;;;;5134960;27;20379;-45
2020/12/02 09:53:23;;;;;;;26.73;13.88;;;9.70;78.40;;;;;;5134500;27;20096;-44
2020/12/02 09:55:49;;;;;;;24.38;14.45;;;9.70;78.50;;;;;;5116489;27;20487;-45
2020/12/02 09:58:17;;;;;;;24.80;14.38;;;9.70;78.50;;;;;;5134796;27;20039;-46
2020/12/02 10:00:42;;;;;;;24.80;13.25;;;9.70;78.50;;;;;;5134233;27;20103;-38
2020/12/02 10:03:40;;;;;;;22.30;12.88;;;9.70;78.50;;;;;;5134841;27;20051;-45
2020/12/02 10:06:38;;;;;;;23.63;14.57;;;9.70;78.50;;;;;;5135151;27;20035;-45
2020/12/02 10:09:47;;;;;;;26.20;14.90;;;9.80;78.60;;;;;;5111203;27;20571;-44
2020/12/02 10:12:23;;;;;;;22.50;13.32;;;9.80;78.60;;;;;;5134903;27;20043;-44
2020/12/02 10:15:29;;;;;;;21.90;12.13;;;9.80;78.60;;;;;;5119509;27;20406;-44
2020/12/02 10:18:16;;;;;;;23.35;12.70;;;9.80;78.60;;;;;;5134411;27;20043;-42
2020/12/02 10:21:12;;;;;;;26.35;13.73;;;9.80;78.60;;;;;;5119052;27;20046;-42
2020/12/02 10:23:47;;;;;;;24.92;11.77;;;9.80;78.60;;;;;;5134162;27;20047;-44
2020/12/02 10:26:19;;;;;;;;;;;9.80;78.60;;;;;;5134495;27;20421;-45
2020/12/02 10:28:59;;;;;;;20.35;11.32;;;9.80;78.60;;;;;;5134742;27;19919;-42
2020/12/02 10:31:31;;;;;;;23.30;12.80;;;9.80;78.60;;;;;;5134154;27;20047;-43
2020/12/02 10:34:24;;;;;;;25.27;13.90;;;9.80;78.60;;;;;;5104917;27;20104;-42
2020/12/02 10:37:34;;;;;;;22.95;13.07;;;9.80;78.60;;;;;;5119082;27;20051;-44
2020/12/02 10:40:00;;;;;;;21.85;12.32;;;9.80;78.50;;;;;;5133905;27;20043;-42
2020/12/02 10:43:07;;;;;;;19.70;11.40;;;9.80;78.60;;;;;;5118698;27;20096;-42
2020/12/02 10:45:57;;;;;;;23.63;13.27;;;9.80;78.60;;;;;;5118489;27;20508;-42
2020/12/02 10:48:48;;;;;;;25.80;13.65;;;9.80;78.60;;;;;;5133652;27;20406;-41
2020/12/02 10:51:13;;;;;;;21.13;12.40;;;9.80;78.60;;;;;;5134188;27;20073;-42
2020/12/02 10:53:42;;;;;;;18.92;11.73;;;9.80;78.60;;;;;;5133922;27;20095;-43
2020/12/02 10:56:28;;;;;;;24.10;12.55;;;9.90;78.60;;;;;;5118790;27;20058;-43
2020/12/02 10:58:54;;;;;;;22.20;12.00;;;9.80;78.60;;;;;;5134119;27;20483;-42
2020/12/02 11:01:22;;;;;;;21.92;11.77;;;9.80;78.60;;;;;;5133796;27;20039;-42
2020/12/02 11:03:48;;;;;;;18.88;10.98;;;9.90;78.70;;;;;;5132524;27;20054;-43
2020/12/02 11:06:29;;;;;;;20.08;11.23;;;9.90;78.60;;;;;;5133913;27;20050;-43
2020/12/02 11:09:22;;;;;;;20.05;11.93;;;9.90;78.60;;;;;;5133687;27;20039;-43
2020/12/02 11:12:09;;;;;;;19.75;10.60;;;9.90;78.60;;;;;;5133471;27;20131;-41
2020/12/02 11:14:40;;;;;;;17.45;11.05;;;9.90;78.60;;;;;;5133511;27;20055;-39
2020/12/02 11:17:54;;;;;;;19.02;11.93;;;9.80;78.60;;;;;;5133627;27;20043;-43
2020/12/02 11:20:28;;;;;;;21.33;12.05;;;9.90;78.60;;;;;;5114356;27;20047;-44
2020/12/02 11:23:20;;;;;;;21.45;11.75;;;9.90;78.60;;;;;;5133157;27;20092;-42
2020/12/02 11:26:10;;;;;;;19.25;11.98;;;9.90;78.60;;;;;;5133726;27;20130;-43
2020/12/02 11:28:59;;;;;;;18.15;10.85;;;9.90;78.60;;;;;;5110479;27;20051;-44
2020/12/02 11:31:31;;;;;;;18.73;10.30;;;9.90;78.60;;;;;;5133298;27;20047;-48
2020/12/02 11:34:28;;;;;;;16.75;10.95;;;9.90;78.60;;;;;;5118182;27;20075;-43
2020/12/02 11:37:11;;;;;;;17.48;10.95;;;9.90;78.60;;;;;;5114372;28;20035;-43
2020/12/02 11:40:07;;;;;;;17.90;10.80;;;9.90;78.60;;;;;;5133143;28;20055;-44
2020/12/02 11:42:55;;;;;;;17.05;10.80;;;9.90;78.60;;;;;;5125990;28;20387;-45
2020/12/02 11:45:26;;;;;;;18.55;10.82;;;9.90;78.60;;;;;;5133626;28;20043;-44
2020/12/02 11:48:29;;;;;;;16.45;10.20;;;9.90;78.60;;;;;;5133128;28;20043;-43
2020/12/02 11:50:58;;;;;;;19.33;10.90;;;9.90;78.60;;;;;;5133042;28;20042;-43
2020/12/02 11:53:39;;;;;;;19.20;10.57;;;9.90;78.60;;;;;;5132632;28;20195;-39
2020/12/02 11:56:08;;;;;;;18.83;10.40;;;9.90;78.60;;;;;;5133135;28;20051;-44
2020/12/02 11:58:34;;;;;;;16.08;10.55;;;9.90;78.60;;;;;;5133275;28;20558;-46
2020/12/02 12:01:26;;;;;;;18.40;10.68;;;9.90;79.30;;;;;;5133162;28;20043;-45
2020/12/02 12:04:35;;;;;;;18.02;10.10;;;9.90;78.60;;;;;;5015715;28;20149;-45
2020/12/02 12:07:34;;;;;;;24.15;12.15;;;9.90;78.60;;;;;;5029605;28;20050;-48
2020/12/02 12:10:06;;;;;;;23.27;12.35;;;9.90;78.40;;;;;;5029275;28;20111;-44
2020/12/02 12:12:44;;;;;;;23.42;13.43;;;9.80;78.50;;;;;;5029805;28;20136;-45
2020/12/02 12:15:28;;;;;;;19.90;10.95;;;9.80;78.50;;;;;;5020001;28;20049;-45
2020/12/02 12:18:42;;;;;;;19.17;12.20;;;9.80;78.60;;;;;;5020097;28;20095;-46
2020/12/02 12:21:42;;;;;;;20.48;11.65;;;9.80;78.60;;;;;;5033776;28;20041;-44
2020/12/02 12:24:13;;;;;;;20.23;10.13;;;9.80;78.60;;;;;;4923849;29;20054;-40
2020/12/02 12:26:59;;;;;;;19.98;10.75;;;9.80;78.60;;;;;;4931602;29;20055;-40
2020/12/02 12:29:44;;;;;;;17.63;11.27;;;9.80;78.60;;;;;;4917101;29;20055;-40
2020/12/02 12:32:55;;;;;;;21.38;10.93;;;9.80;78.60;;;;;;4942926;29;20055;-44
2020/12/02 12:35:25;;;;;;;17.75;10.75;;;9.80;78.60;;;;;;4930733;29;20066;-44
2020/12/02 12:37:59;;;;;;;19.30;11.15;;;9.80;78.60;;;;;;4930722;29;20051;-42
2020/12/02 12:41:08;;;;;;;20.85;11.70;;;9.80;78.60;;;;;;4949563;28;20054;-41
2020/12/02 12:44:10;;;;;;;17.45;10.45;;;9.80;78.60;;;;;;4926817;28;20505;-41
2020/12/02 12:47:07;;;;;;;17.48;10.02;;;9.80;78.60;;;;;;4948374;28;20151;-40
2020/12/02 12:49:33;;;;;;;17.63;10.32;;;9.90;78.70;;;;;;4949211;29;20055;-40
2020/12/02 12:52:02;;;;;;;18.00;10.60;;;9.80;78.60;;;;;;4948801;29;20182;-40
2020/12/02 12:54:48;;;;;;;16.58;9.85;;;9.90;78.70;;;;;;4935831;29;20551;-41
2020/12/02 12:57:33;;;;;;;17.70;10.48;;;9.90;78.70;;;;;;4936250;29;20094;-39
2020/12/02 13:00:07;;;;;;;20.63;11.00;;;9.80;78.70;;;;;;4971242;28;20119;-40
2020/12/02 13:02:35;;;;;;;17.88;10.75;;;9.90;78.70;;;;;;5027641;28;20084;-40
2020/12/02 13:05:21;;;;;;;17.58;10.40;;;9.80;78.60;;;;;;5013143;28;20539;-39
2020/12/02 13:07:52;;;;;;;17.10;10.23;;;9.90;78.70;;;;;;5027580;28;20053;-39
2020/12/02 13:10:43;;;;;;;19.70;10.60;;;9.90;78.70;;;;;;5031167;28;20145;-42
2020/12/02 13:13:23;;;;;;;21.15;10.77;;;9.90;78.70;;;;;;5030223;28;20555;-42
2020/12/02 13:16:12;;;;;;;14.50;10.13;;;9.90;78.70;;;;;;5025917;28;20049;-45
2020/12/02 13:19:18;;;;;;;17.15;9.80;;;9.90;78.70;;;;;;5015405;28;20049;-43
2020/12/02 13:21:59;;;;;;;15.98;9.40;;;9.90;78.70;;;;;;5126454;27;20055;-41
2020/12/02 13:24:30;;;;;;;20.17;11.10;;;9.90;78.70;;;;;;5133799;27;20055;-43
2020/12/02 13:27:14;;;;;;;18.73;10.82;;;9.90;78.70;;;;;;5132489;27;20050;-46
2020/12/02 13:30:05;;;;;;;17.42;9.68;;;9.90;78.70;;;;;;5119028;27;20047;-46
2020/12/02 13:32:56;;;;;;;15.95;9.88;;;9.90;78.70;;;;;;5135116;27;20047;-42
2020/12/02 13:35:46;;;;;;;19.20;10.57;;;9.90;78.60;;;;;;5120809;27;20051;-41
2020/12/02 13:38:14;;;;;;;18.08;9.65;;;9.90;78.70;;;;;;5135430;27;20457;-43
2020/12/02 13:40:41;;;;;;;16.92;10.43;;;9.90;78.60;;;;;;5135965;27;20455;-47